Time;durP1;ratioP1;P1;durP2;ratioP2;P2;SDS_P1;SDS_P2;PMS_P1;PMS_P2;Temp;Humidity;BMP_temperature;BMP_pressure;BME280_temperature;BME280_humidity;BME280_pressure;Samples;Min_cycle;Max_cycle;Signal;HPM_P1;HPM_P2
2023/03/27 00:01:14;;;;;;;3.20;3.10;;;;;;;1.80;100.00;100528.06;6146302;23;20025;-77
2023/03/27 00:03:41;;;;;;;2.90;2.80;;;;;;;1.92;100.00;100566.66;6109928;23;20037;-74
2023/03/27 00:06:15;;;;;;;3.40;3.22;;;;;;;1.92;100.00;100561.47;6133574;23;20413;-75
2023/03/27 00:08:43;;;;;;;3.35;3.15;;;;;;;2.04;100.00;100608.72;6137625;23;20017;-75
2023/03/27 00:11:10;;;;;;;3.15;3.05;;;;;;;2.22;100.00;100636.00;6107929;23;20583;-74
2023/03/27 00:13:39;;;;;;;2.80;2.70;;;;;;;2.20;100.00;100641.19;6119510;23;20029;-76
2023/03/27 00:16:20;;;;;;;3.08;2.97;;;;;;;2.09;100.00;100645.75;6149907;23;20004;-74
2023/03/27 00:18:47;;;;;;;2.88;2.78;;;;;;;2.08;100.00;100667.31;6141336;23;20029;-74
2023/03/27 00:21:14;;;;;;;3.88;3.67;;;;;;;0.96;100.00;100482.13;6122425;23;20349;-76
2023/03/27 00:23:41;;;;;;;2.80;2.70;;;;;;;2.04;100.00;100682.03;6141144;23;20464;-74
2023/03/27 00:26:07;;;;;;;3.05;2.95;;;;;;;1.99;100.00;100691.63;6148481;23;20551;-74
2023/03/27 00:28:34;;;;;;;2.80;2.70;;;;;;;1.80;100.00;100678.13;6139327;23;20025;-76
2023/03/27 00:31:01;;;;;;;2.83;2.72;;;;;;;1.78;100.00;100692.81;6110173;23;20080;-75
2023/03/27 00:33:28;;;;;;;2.75;2.65;;;;;;;1.78;100.00;100698.88;6147253;23;20501;-74
2023/03/27 00:35:54;;;;;;;3.10;3.00;;;;;;;1.89;100.00;100726.31;6114843;23;20406;-74
2023/03/27 00:38:21;;;;;;;3.42;3.25;;;;;;;1.86;100.00;100749.63;6148097;23;20055;-75
2023/03/27 00:40:49;;;;;;;2.83;2.72;;;;;;;1.79;100.00;100741.97;6142421;23;20037;-75
2023/03/27 00:43:25;;;;;;;3.85;3.55;;;;;;;1.31;100.00;100681.50;6145800;23;20024;-74
2023/03/27 00:45:57;;;;;;;3.00;2.90;;;;;;;1.27;100.00;100692.75;6139664;23;20029;-76
2023/03/27 00:48:24;;;;;;;;;;;;;;;1.68;100.00;100772.31;6149085;23;20251;-77
2023/03/27 00:50:52;;;;;;;2.80;2.70;;;;;;;1.55;100.00;100766.47;6116180;23;19913;-76
2023/03/27 00:53:26;;;;;;;2.80;2.70;;;;;;;1.05;100.00;100695.63;6107566;23;20040;-75
2023/03/27 00:55:56;;;;;;;2.80;2.70;;;;;;;0.36;100.00;100598.31;6112369;23;20029;-73
2023/03/27 00:58:30;;;;;;;2.90;2.80;;;;;;;1.05;100.00;100734.38;6147169;23;20104;-73
2023/03/27 01:00:57;;;;;;;10.63;2.90;;;;;;;1.55;100.00;100818.19;6139706;23;20045;-74
2023/03/27 01:03:28;;;;;;;3.38;3.28;;;;;;;1.11;100.00;100752.41;6126293;23;20037;-75
2023/03/27 01:05:57;;;;;;;3.40;3.15;;;;;;;1.53;100.00;100832.88;6139945;23;20161;-76
2023/03/27 01:08:26;;;;;;;2.78;2.67;;;;;;;1.24;100.00;100773.75;6147276;23;20156;-75
2023/03/27 01:11:29;;;;;;;8.93;3.10;;;;;;;1.53;100.00;100837.22;6138978;23;20019;-75
2023/03/27 01:14:22;;;;;;;2.80;2.60;;;;;;;0.86;100.00;100743.22;6148318;23;20564;-75
2023/03/27 01:17:00;;;;;;;3.22;3.13;;;;;;;0.89;100.00;100758.69;6138015;23;20013;-74
2023/03/27 01:19:45;;;;;;;2.88;2.78;;;;;;;1.50;100.00;100866.53;6126996;23;20104;-74
2023/03/27 01:22:18;;;;;;;3.47;3.35;;;;;;;1.51;100.00;100875.16;6107984;23;20380;-74
2023/03/27 01:25:20;;;;;;;2.92;2.72;;;;;;;1.49;100.00;100885.53;6125340;23;20127;-75
2023/03/27 01:28:11;;;;;;;2.70;2.60;;;;;;;1.49;100.00;100887.25;6137587;23;20024;-73
2023/03/27 01:30:45;;;;;;;3.10;2.90;;;;;;;1.38;100.00;100872.72;6149414;23;20028;-76
2023/03/27 01:33:50;;;;;;;3.20;3.10;;;;;;;1.50;100.00;100889.81;6091112;23;20032;-74
2023/03/27 01:36:54;;;;;;;2.95;2.85;;;;;;;1.45;100.00;100899.38;6144276;23;20005;-75
2023/03/27 01:40:00;;;;;;;3.30;3.20;;;;;;;1.46;100.00;100902.78;6145266;23;20077;-77
2023/03/27 01:42:41;;;;;;;2.75;2.65;;;;;;;1.44;100.00;100899.38;6137008;23;20073;-74
2023/03/27 01:45:19;;;;;;;3.00;2.90;;;;;;;1.41;100.00;100905.44;6123859;23;20399;-74
2023/03/27 01:47:57;;;;;;;2.70;2.60;;;;;;;1.39;100.00;100902.03;6133205;23;20589;-74
2023/03/27 01:50:43;;;;;;;2.60;2.50;;;;;;;0.89;100.00;100874.97;6153592;23;20725;-74
2023/03/27 01:53:16;;;;;;;8.25;4.57;;;;;;;1.32;100.00;100927.09;6137918;23;20089;-75
2023/03/27 01:55:49;;;;;;;2.50;2.40;;;;;;;0.77;100.00;100835.44;6125732;23;20029;-73
2023/03/27 01:58:21;;;;;;;2.90;2.80;;;;;;;1.33;100.00;100931.38;6112540;23;20528;-75
2023/03/27 02:00:52;;;;;;;3.10;3.00;;;;;;;-0.17;100.00;100690.03;6148755;23;20299;-75
2023/03/27 02:03:34;;;;;;;3.70;3.60;;;;;;;1.30;100.00;100933.13;6135106;23;20023;-74
2023/03/27 02:06:09;;;;;;;2.90;2.80;;;;;;;1.38;100.00;100945.13;6141778;23;20686;-73
2023/03/27 02:08:41;;;;;;;3.42;3.22;;;;;;;0.78;100.00;100856.97;6137324;23;20107;-74
2023/03/27 02:11:07;;;;;;;2.75;2.65;;;;;;;1.05;100.00;100889.44;6153130;23;20036;-75
2023/03/27 02:13:41;;;;;;;2.60;2.50;;;;;;;1.33;100.00;100948.63;6140075;23;20024;-74
2023/03/27 02:16:12;;;;;;;3.00;2.90;;;;;;;0.56;100.00;100845.97;6136047;23;20035;-75
2023/03/27 02:18:46;;;;;;;2.67;2.58;;;;;;;1.28;100.00;100958.16;6137373;23;20099;-74
2023/03/27 02:21:14;;;;;;;3.28;3.17;;;;;;;1.25;100.00;100963.38;6135970;23;20476;-74
2023/03/27 02:23:40;;;;;;;2.85;2.75;;;;;;;0.67;100.00;100872.56;6139082;23;20369;-74
2023/03/27 02:26:11;;;;;;;3.10;3.00;;;;;;;0.83;100.00;100913.78;6136488;23;20560;-76
2023/03/27 02:28:59;;;;;;;2.72;2.63;;;;;;;1.14;100.00;100969.50;6135979;23;20017;-75
2023/03/27 02:31:30;;;;;;;2.67;2.58;;;;;;;1.12;100.00;100976.41;6105945;23;20463;-75
2023/03/27 02:34:17;;;;;;;2.50;2.40;;;;;;;0.68;100.00;100909.56;6138006;23;20021;-75
2023/03/27 02:37:02;;;;;;;2.70;2.60;;;;;;;1.05;100.00;100982.47;6138048;23;20021;-75
2023/03/27 02:39:49;;;;;;;2.80;2.70;;;;;;;1.07;100.00;100997.97;6109077;23;20025;-74
2023/03/27 02:42:18;;;;;;;2.70;2.60;;;;;;;1.05;100.00;101005.75;6107332;23;20037;-75
2023/03/27 02:44:53;;;;;;;2.70;2.60;;;;;;;0.36;100.00;100905.50;6116345;23;20314;-74
2023/03/27 02:47:38;;;;;;;2.88;2.78;;;;;;;0.59;100.00;100949.25;6109223;23;20032;-73
2023/03/27 02:50:10;;;;;;;4.20;2.88;;;;;;;0.94;100.00;101003.25;6110640;23;20164;-73
2023/03/27 02:52:46;;;;;;;2.80;2.70;;;;;;;0.83;100.00;100992.13;6112602;23;20059;-75
2023/03/27 02:55:19;;;;;;;2.80;2.70;;;;;;;0.16;100.00;100884.97;6095406;23;20095;-75
2023/03/27 02:57:48;;;;;;;2.95;2.85;;;;;;;0.31;100.00;100917.59;6134965;23;20390;-74
2023/03/27 03:00:24;;;;;;;2.90;2.80;;;;;;;0.43;100.00;100938.16;6113049;23;20446;-76
2023/03/27 03:03:20;;;;;;;2.50;2.40;;;;;;;0.62;100.00;100980.19;6103475;23;20025;-75
2023/03/27 03:05:49;;;;;;;2.72;2.63;;;;;;;0.63;100.00;101005.19;6128886;23;20134;-76
2023/03/27 03:08:15;;;;;;;3.00;2.90;;;;;;;0.14;100.00;100920.25;6137213;23;20025;-76
2023/03/27 03:10:44;;;;;;;3.20;2.67;;;;;;;0.68;100.00;101018.94;6109347;23;20044;-74
2023/03/27 03:13:10;;;;;;;2.63;2.53;;;;;;;0.64;100.00;101024.97;6134899;23;20506;-76
2023/03/27 03:15:38;;;;;;;3.05;2.90;;;;;;;0.51;100.00;101008.69;6135926;23;20103;-75
2023/03/27 03:18:04;;;;;;;2.58;2.47;;;;;;;0.11;100.00;100957.28;6148924;23;20031;-74
2023/03/27 03:21:14;;;;;;;3.13;3.03;;;;;;;0.60;100.00;101036.19;6134333;23;20030;-74
2023/03/27 03:23:41;;;;;;;2.70;2.60;;;;;;;-0.16;100.00;100916.13;6098551;23;20029;-75
2023/03/27 03:26:23;;;;;;;2.60;2.50;;;;;;;-0.82;100.00;100822.72;6148338;23;20025;-75
2023/03/27 03:28:52;;;;;;;2.60;2.50;;;;;;;0.34;100.00;101036.31;6135452;23;20580;-74
2023/03/27 03:31:41;;;;;;;3.10;2.95;;;;;;;0.12;100.00;100996.84;6150412;23;20017;-74
2023/03/27 03:34:12;;;;;;;2.97;2.88;;;;;;;0.41;100.00;101058.66;6111167;23;20021;-75
2023/03/27 03:36:40;;;;;;;2.70;2.55;;;;;;;0.23;100.00;101038.94;6123158;23;20169;-75
2023/03/27 03:39:08;;;;;;;2.85;2.75;;;;;;;0.42;100.00;101077.59;6135051;23;20321;-75
2023/03/27 03:41:34;;;;;;;12.90;2.80;;;;;;;0.38;100.00;101074.16;6146419;23;20026;-75
2023/03/27 03:44:01;;;;;;;3.35;3.05;;;;;;;0.02;100.00;101021.84;6144210;23;20048;-74
2023/03/27 03:46:30;;;;;;;2.58;2.47;;;;;;;-0.08;100.00;101021.00;6150646;23;20420;-74
2023/03/27 03:48:57;;;;;;;2.70;2.60;;;;;;;-0.53;100.00;100953.22;6143757;23;20044;-74
2023/03/27 03:51:25;;;;;;;3.00;2.90;;;;;;;-0.41;100.00;100986.69;6151114;23;20020;-76
2023/03/27 03:53:51;;;;;;;2.85;2.75;;;;;;;-0.43;100.00;100996.16;6111056;23;20420;-73
2023/03/27 03:56:18;;;;;;;2.70;2.60;;;;;;;-1.28;100.00;100861.47;6140264;23;20017;-75
2023/03/27 03:58:44;;;;;;;2.42;2.33;;;;;;;-0.23;100.00;101033.94;6128947;23;20630;-74
2023/03/27 04:01:11;;;;;;;2.50;2.40;;;;;;;-0.30;100.00;101042.53;6139260;23;20033;-74
2023/03/27 04:03:37;;;;;;;2.60;2.50;;;;;;;0.03;100.00;101108.69;6118959;23;20033;-75
2023/03/27 04:06:06;;;;;;;2.60;2.50;;;;;;;0.01;100.00;101105.25;6137130;23;20037;-74
2023/03/27 04:08:33;;;;;;;2.70;2.60;;;;;;;-0.30;100.00;101052.84;6145540;23;20024;-75
2023/03/27 04:11:00;;;;;;;2.58;2.47;;;;;;;-0.51;100.00;101017.66;6136359;23;20054;-75
2023/03/27 04:13:26;;;;;;;2.60;2.50;;;;;;;-0.30;100.00;101063.16;6112135;23;20112;-75
2023/03/27 04:15:54;;;;;;;2.60;2.50;;;;;;;-0.41;100.00;101070.94;6147181;23;20589;-74
2023/03/27 04:18:22;;;;;;;2.60;2.50;;;;;;;-0.16;100.00;101084.66;6142911;23;20021;-74
2023/03/27 04:20:49;;;;;;;2.50;2.40;;;;;;;0.08;100.00;101131.91;6113406;23;20018;-74
2023/03/27 04:23:17;;;;;;;3.03;2.92;;;;;;;0.11;100.00;101145.66;6143362;23;20031;-73
2023/03/27 04:25:45;;;;;;;2.60;2.50;;;;;;;0.14;100.00;101155.09;6135407;23;20141;-73
2023/03/27 04:28:16;;;;;;;3.03;2.83;;;;;;;-0.06;100.00;101130.22;6151353;23;20052;-74
2023/03/27 04:30:49;;;;;;;2.80;2.70;;;;;;;0.05;100.00;101157.72;6140324;23;20045;-75
2023/03/27 04:33:18;;;;;;;3.17;3.00;;;;;;;0.06;100.00;101162.00;6147012;23;20024;-75
2023/03/27 04:35:45;;;;;;;3.05;2.88;;;;;;;-0.43;100.00;101090.69;6123744;23;20032;-74
2023/03/27 04:38:33;;;;;;;2.53;2.42;;;;;;;-1.03;100.00;100985.91;6148968;23;20332;-75
2023/03/27 04:41:00;;;;;;;2.58;2.47;;;;;;;0.11;100.00;101175.78;6088755;23;20050;-74
2023/03/27 04:43:27;;;;;;;2.65;2.55;;;;;;;0.11;100.00;101178.34;6142053;23;20105;-76
2023/03/27 04:45:53;;;;;;;2.50;2.40;;;;;;;-0.68;100.00;101064.94;6149366;23;20157;-73
2023/03/27 04:48:21;;;;;;;2.53;2.42;;;;;;;-0.07;100.00;101164.59;6139476;23;20516;-76
2023/03/27 04:50:50;;;;;;;2.55;2.45;;;;;;;0.15;100.00;101191.25;6152942;23;20024;-76
2023/03/27 04:53:19;;;;;;;2.75;2.65;;;;;;;-0.09;100.00;101160.31;6118839;23;20073;-73
2023/03/27 04:55:49;;;;;;;2.60;2.50;;;;;;;-0.31;100.00;101118.22;6148435;23;20025;-75
2023/03/27 04:58:17;;;;;;;2.72;2.63;;;;;;;-0.52;100.00;101094.16;6140632;23;20058;-74
2023/03/27 05:00:49;;;;;;;3.75;3.45;;;;;;;-0.46;100.00;101095.84;6137268;23;20609;-76
2023/03/27 05:03:19;;;;;;;3.40;3.10;;;;;;;-0.32;100.00;101126.78;6108992;23;20366;-74
2023/03/27 05:05:49;;;;;;;2.60;2.50;;;;;;;0.17;100.00;101184.34;6147239;23;20047;-74
2023/03/27 05:08:16;;;;;;;3.03;2.92;;;;;;;-0.39;100.00;101102.72;6109222;23;20114;-73
2023/03/27 05:10:43;;;;;;;2.58;2.47;;;;;;;0.36;100.00;101223.03;6153594;23;20024;-76
2023/03/27 05:13:10;;;;;;;2.67;2.58;;;;;;;0.32;100.00;101209.31;6113786;23;20071;-74
2023/03/27 05:15:39;;;;;;;2.50;2.40;;;;;;;0.39;100.00;101231.66;6140846;23;20017;-75
2023/03/27 05:18:06;;;;;;;15.63;3.58;;;;;;;0.38;100.00;101224.78;6155984;23;20021;-74
2023/03/27 05:20:33;;;;;;;2.70;2.60;;;;;;;-0.31;100.00;101116.47;6108823;23;20037;-74
2023/03/27 05:23:02;;;;;;;6.30;3.72;;;;;;;0.42;100.00;101240.25;6130553;23;20080;-75
2023/03/27 05:25:29;;;;;;;2.63;2.53;;;;;;;-0.22;100.00;101125.91;6111924;23;20037;-75
2023/03/27 05:27:56;;;;;;;2.33;2.22;;;;;;;-1.01;100.00;100980.75;6154700;23;20041;-75
2023/03/27 05:30:25;;;;;;;2.92;2.83;;;;;;;-0.17;100.00;101141.41;6140777;23;20467;-74
2023/03/27 05:32:52;;;;;;;2.45;2.35;;;;;;;0.20;100.00;101191.22;6150582;23;20337;-75
2023/03/27 05:35:22;;;;;;;2.65;2.55;;;;;;;0.72;100.00;101265.16;6136246;23;20036;-75
2023/03/27 05:37:52;;;;;;;2.70;2.60;;;;;;;0.80;100.00;101276.31;6147102;23;20032;-76
2023/03/27 05:40:21;;;;;;;2.83;2.72;;;;;;;0.89;100.00;101281.47;6139285;23;20223;-73
2023/03/27 05:42:52;;;;;;;2.60;2.50;;;;;;;0.32;100.00;101188.66;6116899;23;20207;-71
2023/03/27 05:45:18;;;;;;;3.40;3.20;;;;;;;0.88;100.00;101272.03;6141273;23;20043;-71
2023/03/27 05:47:53;;;;;;;2.90;2.80;;;;;;;1.04;100.00;101288.31;6149843;23;20082;-72
2023/03/27 05:50:22;;;;;;;2.55;2.45;;;;;;;1.12;100.00;101307.28;6139133;23;20464;-72
2023/03/27 05:52:57;;;;;;;2.58;2.47;;;;;;;1.19;100.00;101285.69;6148438;23;20459;-72
2023/03/27 05:55:25;;;;;;;3.28;3.17;;;;;;;1.28;100.00;101296.84;6139712;23;20362;-71
2023/03/27 05:57:53;;;;;;;2.72;2.63;;;;;;;1.24;100.00;101289.97;6152837;23;20020;-73
2023/03/27 06:00:24;;;;;;;2.80;2.70;;;;;;;0.02;100.00;101067.41;6140481;23;20086;-72
2023/03/27 06:02:55;;;;;;;2.47;2.38;;;;;;;1.48;100.00;101307.09;6112040;23;20025;-71
2023/03/27 06:05:24;;;;;;;3.10;3.00;;;;;;;1.26;100.00;101259.78;6134835;23;20051;-72
2023/03/27 06:07:51;;;;;;;2.65;2.55;;;;;;;1.52;100.00;101311.38;6125114;23;20024;-73
2023/03/27 06:10:21;;;;;;;3.00;2.90;;;;;;;1.73;100.00;101319.03;6114304;23;20419;-72
2023/03/27 06:12:48;;;;;;;2.60;2.50;;;;;;;1.75;100.00;101327.66;6124936;23;20056;-72
2023/03/27 06:15:15;;;;;;;4.13;2.85;;;;;;;1.88;100.00;101325.84;6140355;23;20036;-72
2023/03/27 06:17:46;;;;;;;3.00;2.90;;;;;;;1.94;100.00;101338.75;6149037;23;20239;-71
2023/03/27 06:20:14;;;;;;;3.20;3.00;;;;;;;1.43;100.00;101254.56;6140126;23;20117;-72
2023/03/27 06:22:44;;;;;;;3.05;2.95;;;;;;;2.10;100.00;101343.84;6145995;23;20055;-71
2023/03/27 06:25:10;;;;;;;2.67;2.58;;;;;;;1.81;100.00;101290.53;6118243;23;20033;-71
2023/03/27 06:27:38;;;;;;;16.08;3.20;;;;;;;2.18;100.00;101361.03;6148987;23;20037;-72
2023/03/27 06:30:05;;;;;;;2.90;2.80;;;;;;;1.81;100.00;101298.31;6140965;23;20282;-71
2023/03/27 06:32:31;;;;;;;3.40;3.28;;;;;;;2.16;100.00;101356.72;6123376;23;20027;-71
2023/03/27 06:34:58;;;;;;;3.33;3.13;;;;;;;2.14;100.00;101346.38;6136993;23;20411;-71
2023/03/27 06:37:24;;;;;;;3.13;3.03;;;;;;;2.22;100.00;101369.63;6143709;23;20028;-71
2023/03/27 06:39:51;;;;;;;2.78;2.67;;;;;;;2.31;100.00;101377.34;6140621;23;20089;-70
2023/03/27 06:42:17;;;;;;;3.95;3.03;;;;;;;2.16;100.00;101330.84;6147163;23;20016;-71
2023/03/27 06:44:44;;;;;;;2.80;2.70;;;;;;;2.26;100.00;101334.22;6138917;23;20051;-71
2023/03/27 06:47:11;;;;;;;2.92;2.83;;;;;;;2.57;100.00;101371.97;6152566;23;20041;-71
2023/03/27 06:49:38;;;;;;;3.00;2.90;;;;;;;1.77;100.00;101250.03;6138963;23;20037;-70
2023/03/27 06:52:04;;;;;;;2.80;2.70;;;;;;;2.01;100.00;101274.03;6094142;23;20244;-71
2023/03/27 06:54:31;;;;;;;3.00;2.90;;;;;;;1.90;100.00;101249.03;6137039;23;20106;-71
2023/03/27 06:57:00;;;;;;;3.20;3.10;;;;;;;2.64;100.00;101383.13;6119071;23;20084;-71
2023/03/27 06:59:26;;;;;;;3.10;3.00;;;;;;;2.74;100.00;101376.16;6110969;23;20020;-72
2023/03/27 07:01:55;;;;;;;3.03;2.92;;;;;;;2.92;100.00;101388.94;6140175;23;20026;-73
2023/03/27 07:04:21;;;;;;;2.85;2.75;;;;;;;2.48;100.00;101322.81;6088412;23;20049;-73
2023/03/27 07:06:49;;;;;;;2.60;2.50;;;;;;;2.77;100.00;101382.16;6145287;23;20136;-72
2023/03/27 07:09:15;;;;;;;9.13;3.58;;;;;;;2.48;100.00;101343.53;6133131;23;20069;-73
2023/03/27 07:11:42;;;;;;;3.20;3.03;;;;;;;2.82;100.00;101396.81;6145755;23;20025;-72
2023/03/27 07:14:08;;;;;;;2.80;2.70;;;;;;;1.38;100.00;101154.59;6114985;23;20053;-71
2023/03/27 07:16:35;;;;;;;3.95;3.65;;;;;;;2.78;100.00;101368.31;6140828;23;20028;-72
2023/03/27 07:19:04;;;;;;;2.88;2.78;;;;;;;3.06;100.00;101412.13;6142822;23;20032;-72
2023/03/27 07:21:30;;;;;;;4.00;3.80;;;;;;;2.99;100.00;101428.66;6147741;23;20358;-74
2023/03/27 07:23:57;;;;;;;3.05;2.95;;;;;;;2.73;100.00;101374.44;6144685;23;20029;-72
2023/03/27 07:26:23;;;;;;;6.20;3.10;;;;;;;2.89;100.00;101395.91;6150515;23;20005;-72
2023/03/27 07:28:50;;;;;;;2.85;2.75;;;;;;;3.11;100.00;101420.75;6138866;23;20025;-72
2023/03/27 07:31:17;;;;;;;3.40;3.30;;;;;;;2.91;100.00;101378.59;6145245;23;20079;-73
2023/03/27 07:33:47;;;;;;;3.05;2.95;;;;;;;3.43;100.00;101437.72;6139275;23;20051;-70
2023/03/27 07:36:13;;;;;;;3.28;3.13;;;;;;;3.26;100.00;101367.00;6123288;23;20036;-69
2023/03/27 07:38:41;;;;;;;4.40;3.47;;;;;;;3.79;100.00;101433.00;6112988;23;20164;-71
2023/03/27 07:41:08;;;;;;;3.88;3.58;;;;;;;3.96;100.00;101432.75;6154112;23;20017;-72
2023/03/27 07:43:34;;;;;;;3.38;3.28;;;;;;;2.75;100.00;101225.81;6114541;23;20024;-73
2023/03/27 07:46:02;;;;;;;3.10;3.00;;;;;;;3.76;100.00;101388.88;6154814;23;20020;-72
2023/03/27 07:48:29;;;;;;;3.25;3.15;;;;;;;3.46;100.00;101315.72;6116984;23;20036;-72
2023/03/27 07:51:00;;;;;;;3.88;3.67;;;;;;;3.62;100.00;101311.19;6115108;23;20232;-72
2023/03/27 07:53:40;;;;;;;4.25;3.50;;;;;;;4.23;100.00;101399.50;6141838;23;20178;-72
2023/03/27 07:56:07;;;;;;;3.17;3.08;;;;;;;3.25;100.00;101228.66;6152370;23;20082;-72
2023/03/27 07:58:34;;;;;;;3.33;3.22;;;;;;;3.75;100.00;101312.75;6141092;23;20086;-72
2023/03/27 08:01:03;;;;;;;3.10;3.00;;;;;;;4.00;98.63;101317.56;6156301;23;20044;-70
2023/03/27 08:03:30;;;;;;;3.15;3.05;;;;;;;4.37;96.86;101338.66;6141473;23;20023;-70
2023/03/27 08:05:58;;;;;;;3.00;2.90;;;;;;;4.50;95.42;101341.91;6105581;23;20024;-71
2023/03/27 08:08:26;;;;;;;3.10;3.00;;;;;;;4.77;93.12;101363.09;6150885;23;20033;-73
2023/03/27 08:10:58;;;;;;;3.38;3.17;;;;;;;4.56;89.36;101296.75;6143157;23;20488;-71
2023/03/27 08:13:25;;;;;;;3.30;3.20;;;;;;;4.89;89.35;101325.63;6151263;23;20084;-73
2023/03/27 08:16:01;;;;;;;5.13;3.40;;;;;;;5.05;87.43;101320.97;6141601;23;20021;-72
2023/03/27 08:18:27;;;;;;;4.15;3.95;;;;;;;5.02;85.42;101274.25;6146220;23;20052;-71
2023/03/27 08:20:56;;;;;;;3.60;3.40;;;;;;;5.28;83.63;101289.31;6142184;23;20082;-72
2023/03/27 08:23:26;;;;;;;3.92;3.35;;;;;;;5.43;82.57;101270.75;6132822;23;20111;-71
2023/03/27 08:25:53;;;;;;;3.90;3.70;;;;;;;5.50;78.98;101237.66;6143272;23;20020;-70
2023/03/27 08:28:20;;;;;;;5.10;4.57;;;;;;;5.47;78.72;101183.94;6151524;23;20028;-72
2023/03/27 08:30:46;;;;;;;3.50;3.40;;;;;;;5.97;76.09;101222.69;6135868;23;20036;-71
2023/03/27 08:33:13;;;;;;;3.25;3.15;;;;;;;6.25;75.75;101221.97;6152763;23;20031;-71
2023/03/27 08:35:39;;;;;;;3.60;3.50;;;;;;;6.17;75.18;101190.91;6141341;23;20080;-75
2023/03/27 08:38:06;;;;;;;3.20;3.10;;;;;;;5.09;73.99;101032.16;6113071;23;20193;-73
2023/03/27 08:40:57;;;;;;;7.03;3.92;;;;;;;5.19;73.50;101080.47;6120700;23;20033;-73
2023/03/27 08:43:29;;;;;;;3.63;3.50;;;;;;;5.26;73.66;101138.41;6112711;23;20393;-73
2023/03/27 08:46:02;;;;;;;3.30;3.20;;;;;;;4.70;74.27;101049.53;6132954;23;20053;-73
2023/03/27 08:48:35;;;;;;;3.50;3.30;;;;;;;5.06;73.87;101101.59;6168441;23;20233;-70
2023/03/27 08:51:05;;;;;;;;;;;;;;;5.49;73.07;101148.31;6162234;23;20119;-71
2023/03/27 08:53:47;;;;;;;3.72;3.53;;;;;;;5.53;73.95;101156.88;6171336;23;19913;-70
2023/03/27 08:56:14;;;;;;;9.50;3.55;;;;;;;5.55;74.86;101184.59;6161939;23;20251;-72
2023/03/27 08:58:43;;;;;;;3.30;3.20;;;;;;;5.13;76.66;101205.50;6168039;23;20272;-70
2023/03/27 09:01:20;;;;;;;3.75;3.05;;;;;;;5.05;77.74;101225.63;6143176;23;20021;-72
2023/03/27 09:03:54;;;;;;;4.18;3.40;;;;;;;4.70;77.63;101180.34;6155574;23;20492;-70
2023/03/27 09:06:28;;;;;;;4.20;3.38;;;;;;;4.97;78.21;101253.50;6140484;23;20315;-70
2023/03/27 09:09:30;;;;;;;3.40;3.20;;;;;;;5.31;77.41;101260.59;6141268;23;20273;-71
2023/03/27 09:12:38;;;;;;;3.88;3.67;;;;;;;5.54;75.95;101252.31;6116337;23;20019;-71
2023/03/27 09:15:11;;;;;;;3.10;3.00;;;;;;;5.92;74.54;101232.34;6154110;23;20577;-73
2023/03/27 09:17:42;;;;;;;5.30;4.95;;;;;;;6.08;71.55;101160.75;6085399;23;20116;-73
2023/03/27 09:20:18;;;;;;;3.37;3.10;;;;;;;5.68;71.03;101098.38;6155130;23;20179;-72
2023/03/27 09:22:52;;;;;;;3.72;3.53;;;;;;;5.56;69.70;101097.78;6141250;23;20802;-70
2023/03/27 09:25:29;;;;;;;3.55;3.35;;;;;;;5.55;68.02;101006.69;6158442;23;20528;-71
2023/03/27 09:27:56;;;;;;;3.58;3.17;;;;;;;5.94;68.50;101054.25;6116725;23;20037;-70
2023/03/27 09:30:32;;;;;;;9.88;4.00;;;;;;;6.47;66.86;101068.44;6147679;23;20037;-70
2023/03/27 09:33:03;;;;;;;4.95;4.32;;;;;;;6.84;65.74;101083.03;6140247;23;20029;-71
2023/03/27 09:35:31;;;;;;;3.55;3.38;;;;;;;6.92;63.75;101015.81;6146914;23;20306;-70
2023/03/27 09:38:02;;;;;;;4.03;3.72;;;;;;;7.04;63.59;101004.97;6140295;23;20021;-70
2023/03/27 09:40:44;;;;;;;4.00;3.78;;;;;;;6.72;63.67;100977.31;6089604;23;20025;-70
2023/03/27 09:43:17;;;;;;;4.47;4.18;;;;;;;6.23;64.25;100955.34;6117146;23;20025;-71
2023/03/27 09:45:48;;;;;;;3.55;3.45;;;;;;;5.67;66.33;100980.31;6150300;23;20033;-71
2023/03/27 09:48:23;;;;;;;3.38;3.28;;;;;;;5.90;65.16;101000.53;6111325;23;20542;-71
2023/03/27 09:50:50;;;;;;;4.18;3.88;;;;;;;6.23;65.19;101013.53;6113136;23;20033;-70
2023/03/27 09:53:20;;;;;;;3.10;3.00;;;;;;;6.88;65.74;101066.38;6136099;23;20483;-70
2023/03/27 09:55:59;;;;;;;3.90;3.50;;;;;;;6.93;62.87;100983.56;6111697;23;20640;-70
2023/03/27 09:58:42;;;;;;;3.60;3.40;;;;;;;7.39;63.44;101029.03;6139015;23;20021;-73
2023/03/27 10:01:33;;;;;;;6.15;3.92;;;;;;;7.01;62.55;100924.16;6138139;23;20455;-74
2023/03/27 10:03:59;;;;;;;3.85;3.65;;;;;;;6.02;61.40;100749.28;6148527;23;20036;-72
2023/03/27 10:06:29;;;;;;;4.50;4.07;;;;;;;6.64;60.40;100851.53;6109131;23;20025;-70
2023/03/27 10:09:06;;;;;;;6.03;3.30;;;;;;;6.03;61.65;100805.66;6124577;23;20028;-70
2023/03/27 10:11:35;;;;;;;3.92;3.70;;;;;;;6.30;63.30;100902.97;6138772;23;20021;-71
2023/03/27 10:14:12;;;;;;;4.38;4.07;;;;;;;6.35;64.19;100971.47;6149399;23;20596;-70
2023/03/27 10:16:40;;;;;;;4.30;4.00;;;;;;;6.29;65.29;100983.81;6138181;23;20093;-71
2023/03/27 10:19:36;;;;;;;3.80;3.60;;;;;;;6.39;64.26;100957.44;6112508;23;20032;-70
2023/03/27 10:22:15;;;;;;;4.10;3.80;;;;;;;6.78;62.24;100928.41;6114169;23;20274;-71
2023/03/27 10:24:45;;;;;;;4.80;3.60;;;;;;;6.89;60.07;100869.78;6150166;23;20046;-71
2023/03/27 10:27:20;;;;;;;3.80;3.60;;;;;;;6.94;59.22;100841.78;6112405;23;20032;-71
2023/03/27 10:29:46;;;;;;;4.35;4.05;;;;;;;6.84;59.90;100829.97;6127652;23;20027;-71
2023/03/27 10:32:13;;;;;;;7.85;4.03;;;;;;;6.79;60.43;100866.63;6110087;23;20044;-71
2023/03/27 10:34:56;;;;;;;16.02;4.22;;;;;;;6.61;61.93;100857.66;6108950;23;20017;-71
2023/03/27 10:37:29;;;;;;;4.00;3.80;;;;;;;6.73;61.11;100862.47;6137846;23;20108;-72
2023/03/27 10:39:59;;;;;;;3.75;3.55;;;;;;;7.20;59.05;100866.97;6152527;23;20105;-70
2023/03/27 10:42:30;;;;;;;6.60;3.70;;;;;;;6.91;57.49;100701.00;6114834;23;20670;-71
2023/03/27 10:44:57;;;;;;;3.83;3.63;;;;;;;6.52;57.38;100612.91;6149719;23;20057;-70
2023/03/27 10:47:28;;;;;;;4.10;3.90;;;;;;;6.97;56.87;100698.16;6110917;23;20102;-71
2023/03/27 10:50:05;;;;;;;4.20;4.00;;;;;;;6.54;57.21;100600.66;6133186;23;20019;-71
2023/03/27 10:52:47;;;;;;;4.00;3.75;;;;;;;6.68;57.40;100684.44;6116881;23;20025;-71
2023/03/27 10:55:43;;;;;;;4.90;4.35;;;;;;;6.79;59.30;100777.94;6147329;23;20074;-71
2023/03/27 10:58:27;;;;;;;3.30;3.20;;;;;;;6.87;58.10;100725.50;6141873;23;20081;-71
2023/03/27 11:01:05;;;;;;;3.80;3.60;;;;;;;6.39;59.68;100767.16;6122474;23;20100;-72
2023/03/27 11:03:34;;;;;;;3.80;3.58;;;;;;;6.70;60.58;100806.97;6148703;23;20009;-71
2023/03/27 11:06:05;;;;;;;12.32;3.60;;;;;;;5.86;60.88;100696.78;6142738;23;20462;-72
2023/03/27 11:08:51;;;;;;;4.03;3.83;;;;;;;6.61;60.17;100836.81;6119272;23;20095;-70
2023/03/27 11:11:25;;;;;;;7.15;3.70;;;;;;;6.27;61.44;100827.47;6143086;23;20017;-71
2023/03/27 11:13:55;;;;;;;4.60;4.30;;;;;;;6.15;60.65;100763.63;6155629;23;20029;-70
2023/03/27 11:16:28;;;;;;;3.65;3.45;;;;;;;6.27;61.12;100793.59;6122075;23;20334;-71
2023/03/27 11:19:28;;;;;;;3.60;3.50;;;;;;;6.22;61.74;100834.63;6127869;23;20016;-71
2023/03/27 11:22:01;;;;;;;3.35;3.25;;;;;;;7.27;60.64;100899.78;6145634;23;20322;-70
2023/03/27 11:24:46;;;;;;;3.55;3.45;;;;;;;6.38;57.14;100642.94;6152087;23;20115;-70
2023/03/27 11:27:19;;;;;;;3.42;3.33;;;;;;;7.73;58.58;100845.84;6119655;23;20459;-70
2023/03/27 11:29:55;;;;;;;3.83;3.58;;;;;;;8.02;57.61;100853.47;6086544;23;20037;-71
2023/03/27 11:32:32;;;;;;;14.95;4.38;;;;;;;7.90;57.01;100800.81;6113745;23;20641;-72
2023/03/27 11:35:07;;;;;;;4.85;4.55;;;;;;;7.31;58.10;100754.31;6146255;23;20025;-70
2023/03/27 11:38:05;;;;;;;3.90;3.75;;;;;;;6.63;61.51;100852.41;6117343;23;20025;-70
2023/03/27 11:40:36;;;;;;;3.65;3.45;;;;;;;5.40;68.38;100976.72;6163318;23;20059;-71
2023/03/27 11:43:03;;;;;;;3.60;3.47;;;;;;;4.99;76.52;101190.19;6141868;23;20058;-71
2023/03/27 11:45:40;;;;;;;4.10;3.72;;;;;;;4.61;82.52;101289.75;6147510;23;20021;-71
2023/03/27 11:48:15;;;;;;;3.80;3.60;;;;;;;4.49;88.74;101383.50;6134781;23;20049;-71
2023/03/27 11:51:02;;;;;;;3.75;3.55;;;;;;;4.47;92.26;101426.84;6149246;23;20020;-72